Time;durP1;ratioP1;P1;durP2;ratioP2;P2;SDS_P1;SDS_P2;PMS_P1;PMS_P2;Temp;Humidity;BMP_temperature;BMP_pressure;BME280_temperature;BME280_humidity;BME280_pressure;Samples;Min_cycle;Max_cycle;Signal;HPM_P1;HPM_P2
2022/09/11 00:00:06;;;;;;;7.18;5.25;;;14.00;99.90;;;;;;10397529;28;20200;-76
2022/09/11 00:05:38;;;;;;;5.10;4.53;;;14.00;99.90;;;;;;10373800;28;20232;-77
2022/09/11 00:11:07;;;;;;;6.07;4.88;;;14.00;99.90;;;;;;10398145;28;20199;-77
2022/09/11 00:16:35;;;;;;;6.35;4.72;;;14.00;99.90;;;;;;10401255;28;20219;-77
2022/09/11 00:21:56;;;;;;;6.38;5.25;;;14.00;99.90;;;;;;10416601;28;20231;-78
2022/09/11 00:27:17;;;;;;;7.22;5.78;;;14.00;99.90;;;;;;10387510;28;20415;-76
2022/09/11 00:32:38;;;;;;;6.13;5.53;;;14.00;99.90;;;;;;10410251;28;20196;-77
2022/09/11 00:38:00;;;;;;;5.80;4.17;;;13.90;99.90;;;;;;10396336;28;20413;-78
2022/09/11 00:43:21;;;;;;;7.40;4.77;;;13.90;99.90;;;;;;10397139;28;20557;-76
2022/09/11 00:48:48;;;;;;;4.80;4.00;;;13.90;99.90;;;;;;10396789;28;20491;-76
2022/09/11 00:54:12;;;;;;;5.10;4.57;;;13.90;99.90;;;;;;10354994;28;20366;-77
2022/09/11 00:59:35;;;;;;;4.78;4.38;;;13.90;99.90;;;;;;10372153;28;20200;-76
2022/09/11 01:04:58;;;;;;;5.32;4.22;;;13.90;99.90;;;;;;10395112;28;20232;-76
2022/09/11 01:11:05;;;;;;;4.78;4.38;;;13.90;99.90;;;;;;10396261;28;20382;-76
2022/09/11 01:16:48;;;;;;;5.13;4.13;;;13.90;99.90;;;;;;10398546;28;20235;-76
2022/09/11 01:22:40;;;;;;;4.40;3.95;;;13.90;99.90;;;;;;10395637;28;20572;-77
2022/09/11 01:28:09;;;;;;;4.88;4.25;;;13.90;99.90;;;;;;10380582;28;20507;-75
2022/09/11 01:34:14;;;;;;;5.85;5.00;;;13.90;99.90;;;;;;10394540;28;20194;-75
2022/09/11 01:39:49;;;;;;;6.13;5.53;;;13.90;99.90;;;;;;10395491;28;20247;-75
2022/09/11 01:45:14;;;;;;;6.10;5.07;;;13.80;99.90;;;;;;10395120;28;20449;-76
2022/09/11 01:50:40;;;;;;;5.85;5.22;;;13.80;99.90;;;;;;10419656;28;20259;-75
2022/09/11 01:56:08;;;;;;;6.90;6.10;;;13.90;99.90;;;;;;10435531;28;20208;-75
2022/09/11 02:01:38;;;;;;;5.07;4.57;;;13.90;99.90;;;;;;10434820;28;20215;-75
2022/09/11 02:07:09;;;;;;;5.60;5.05;;;14.00;99.90;;;;;;10403343;28;20208;-75
2022/09/11 02:12:40;;;;;;;5.30;4.80;;;13.90;99.90;;;;;;10393950;28;20267;-75
2022/09/11 02:18:25;;;;;;;6.03;5.00;;;13.90;99.90;;;;;;10396202;28;20287;-75
2022/09/11 02:23:48;;;;;;;5.57;4.97;;;13.90;99.90;;;;;;10394494;28;20224;-75
2022/09/11 02:29:11;;;;;;;5.53;4.97;;;13.90;99.90;;;;;;10394316;28;20389;-75
2022/09/11 02:34:35;;;;;;;5.38;4.88;;;13.90;99.90;;;;;;10414863;28;20212;-76
2022/09/11 02:40:14;;;;;;;6.00;5.07;;;13.90;99.90;;;;;;10400997;28;20185;-75
2022/09/11 02:45:40;;;;;;;5.18;4.50;;;13.90;99.90;;;;;;10401530;28;20224;-75
2022/09/11 02:51:29;;;;;;;6.13;5.32;;;13.90;99.90;;;;;;10408612;28;20227;-75
2022/09/11 02:56:59;;;;;;;7.40;5.38;;;13.90;99.90;;;;;;10400372;28;20222;-75
2022/09/11 03:02:23;;;;;;;5.50;5.00;;;13.90;99.90;;;;;;10399963;28;20471;-75
2022/09/11 03:07:46;;;;;;;5.97;5.30;;;13.90;99.90;;;;;;10380137;28;20205;-76
2022/09/11 03:13:07;;;;;;;6.20;5.53;;;13.90;99.90;;;;;;10400334;28;20381;-76
2022/09/11 03:18:29;;;;;;;7.13;5.47;;;13.90;99.90;;;;;;10396153;28;20235;-76
2022/09/11 03:23:50;;;;;;;6.20;5.60;;;13.80;99.90;;;;;;10363160;28;20223;-74
2022/09/11 03:29:12;;;;;;;5.50;4.90;;;13.80;99.90;;;;;;10398645;28;20199;-73
2022/09/11 03:34:35;;;;;;;6.90;4.97;;;13.80;99.90;;;;;;10412820;28;20243;-75
2022/09/11 03:39:57;;;;;;;6.75;5.78;;;13.80;99.90;;;;;;10412667;28;20200;-75
2022/09/11 03:45:20;;;;;;;7.05;5.57;;;13.80;99.90;;;;;;10411748;28;20216;-77
2022/09/11 03:50:43;;;;;;;11.65;8.80;;;13.90;99.90;;;;;;10410238;28;20275;-75
2022/09/11 03:56:05;;;;;;;10.38;8.05;;;13.90;99.90;;;;;;10439773;28;20264;-76
2022/09/11 04:01:34;;;;;;;10.93;8.35;;;13.90;99.90;;;;;;10439718;28;20212;-75
2022/09/11 04:06:55;;;;;;;11.60;7.93;;;13.90;99.90;;;;;;10423215;28;20228;-77
2022/09/11 04:12:18;;;;;;;12.17;9.50;;;13.80;99.90;;;;;;10383119;28;20200;-76
2022/09/11 04:17:40;;;;;;;13.93;9.37;;;13.80;99.90;;;;;;10409764;28;20363;-75
2022/09/11 04:23:03;;;;;;;13.80;9.30;;;13.80;99.90;;;;;;10356398;28;20220;-75
2022/09/11 04:28:28;;;;;;;15.15;10.18;;;13.80;99.90;;;;;;10369651;28;20201;-75
2022/09/11 04:33:49;;;;;;;10.33;8.13;;;13.80;99.90;;;;;;10355894;28;20243;-76
2022/09/11 04:39:12;;;;;;;9.05;7.78;;;13.70;99.90;;;;;;10395762;28;20197;-76
2022/09/11 04:44:33;;;;;;;10.70;8.03;;;13.60;99.90;;;;;;10410044;28;20273;-75
2022/09/11 04:49:56;;;;;;;11.50;8.97;;;13.70;99.90;;;;;;10402938;28;20402;-75
2022/09/11 04:55:18;;;;;;;10.67;8.07;;;13.70;99.90;;;;;;10435718;28;20196;-76
2022/09/11 05:00:40;;;;;;;9.27;7.53;;;13.70;99.90;;;;;;10422476;28;20212;-75
2022/09/11 05:06:06;;;;;;;13.03;8.53;;;13.70;99.90;;;;;;10422125;28;20244;-76
2022/09/11 05:11:29;;;;;;;11.50;7.70;;;13.60;99.90;;;;;;10396334;28;20200;-77
2022/09/11 05:16:51;;;;;;;10.60;7.32;;;13.60;99.90;;;;;;10401050;28;20237;-75
2022/09/11 05:22:16;;;;;;;9.20;6.90;;;13.70;99.90;;;;;;10398574;28;20219;-78
2022/09/11 05:27:44;;;;;;;8.60;7.13;;;13.60;99.90;;;;;;10394895;28;20205;-77
2022/09/11 05:33:07;;;;;;;10.40;8.90;;;13.70;99.90;;;;;;10394990;28;20234;-83
2022/09/11 05:38:29;;;;;;;9.60;7.47;;;13.70;99.90;;;;;;10394520;28;20200;-76
2022/09/11 05:43:51;;;;;;;10.27;6.70;;;13.60;99.90;;;;;;10394187;28;20540;-76
2022/09/11 05:49:13;;;;;;;11.20;7.70;;;13.60;99.90;;;;;;10408558;28;20219;-77
2022/09/11 05:54:34;;;;;;;10.23;7.30;;;13.60;99.90;;;;;;10435048;28;20380;-76
2022/09/11 05:59:58;;;;;;;17.23;12.13;;;13.60;99.90;;;;;;10435328;28;20192;-76
2022/09/11 06:05:20;;;;;;;18.50;11.50;;;13.50;99.90;;;;;;10436009;28;20223;-76
2022/09/11 06:10:45;;;;;;;17.52;11.73;;;13.50;99.90;;;;;;10412981;28;20245;-75
2022/09/11 06:16:13;;;;;;;13.93;10.20;;;13.50;99.90;;;;;;10401992;28;20242;-77
2022/09/11 06:21:38;;;;;;;15.50;10.67;;;13.50;99.90;;;;;;10456620;28;20403;-77
2022/09/11 06:27:22;;;;;;;14.13;9.30;;;13.50;99.90;;;;;;10395866;28;20200;-76
2022/09/11 06:32:46;;;;;;;10.00;8.40;;;13.60;99.90;;;;;;10360645;28;20219;-78
2022/09/11 06:38:08;;;;;;;15.43;8.77;;;13.60;99.90;;;;;;10376122;28;20200;-76
2022/09/11 06:43:30;;;;;;;9.50;7.97;;;13.60;99.90;;;;;;10400888;28;20224;-76
2022/09/11 06:48:54;;;;;;;9.33;7.60;;;13.60;99.90;;;;;;10372122;28;20196;-76
2022/09/11 06:54:18;;;;;;;11.47;7.17;;;13.70;99.90;;;;;;10359898;28;20200;-75
2022/09/11 06:59:41;;;;;;;12.57;8.70;;;13.70;99.90;;;;;;10359863;28;20188;-77
2022/09/11 07:05:04;;;;;;;8.23;6.03;;;13.70;99.90;;;;;;10359266;28;20232;-76
2022/09/11 07:10:27;;;;;;;8.77;6.95;;;13.80;99.90;;;;;;10365661;28;20504;-75
2022/09/11 07:16:02;;;;;;;9.32;7.57;;;13.90;99.90;;;;;;10413289;28;20538;-76
2022/09/11 07:21:27;;;;;;;8.65;6.80;;;13.90;99.90;;;;;;10372280;28;20218;-76
2022/09/11 07:26:53;;;;;;;9.33;7.00;;;14.00;99.90;;;;;;10372237;28;20228;-76
2022/09/11 07:32:21;;;;;;;11.23;7.83;;;14.00;99.90;;;;;;10364113;28;20219;-75
2022/09/11 07:37:43;;;;;;;12.33;8.63;;;14.10;99.90;;;;;;10398795;28;20231;-76
2022/09/11 07:43:05;;;;;;;10.00;7.63;;;14.20;99.90;;;;;;10398581;28;20572;-74
2022/09/11 07:48:26;;;;;;;13.95;7.88;;;14.20;99.90;;;;;;10397610;28;20263;-76
2022/09/11 07:53:51;;;;;;;11.93;8.10;;;14.30;99.90;;;;;;10436272;28;20214;-74
2022/09/11 07:59:13;;;;;;;10.38;7.43;;;14.40;99.90;;;;;;10453096;28;20214;-75
2022/09/11 08:04:37;;;;;;;12.50;7.60;;;14.50;99.90;;;;;;10438456;28;20441;-74
2022/09/11 08:09:58;;;;;;;10.95;6.63;;;14.70;99.90;;;;;;10431160;28;20380;-75
2022/09/11 08:15:37;;;;;;;10.82;7.35;;;14.90;99.90;;;;;;10396887;28;20269;-75
2022/09/11 08:21:08;;;;;;;7.65;6.82;;;14.90;99.90;;;;;;10437232;28;20483;-75
2022/09/11 08:26:35;;;;;;;12.25;7.60;;;15.10;99.90;;;;;;10390667;28;20394;-75
2022/09/11 08:31:56;;;;;;;8.80;6.68;;;15.20;99.90;;;;;;10355700;28;20223;-75
2022/09/11 08:37:21;;;;;;;9.45;6.82;;;15.50;99.90;;;;;;10362341;28;20199;-76
2022/09/11 08:42:45;;;;;;;9.40;6.40;;;15.70;99.90;;;;;;10396188;28;20254;-74
2022/09/11 08:48:11;;;;;;;9.35;5.93;;;16.10;99.90;;;;;;10396411;28;20196;-78
2022/09/11 08:53:33;;;;;;;12.38;5.85;;;17.90;99.90;;;;;;10417726;28;20232;-74
2022/09/11 08:59:09;;;;;;;11.15;5.47;;;18.00;99.90;;;;;;10450773;28;20367;-75
2022/09/11 09:04:40;;;;;;;8.27;4.65;;;18.10;99.90;;;;;;10435971;28;20231;-75
2022/09/11 09:10:23;;;;;;;7.55;4.35;;;20.40;99.90;;;;;;10407077;28;20189;-75
2022/09/11 09:16:01;;;;;;;7.07;3.53;;;20.70;94.50;;;;;;10354409;28;20230;-75
2022/09/11 09:21:29;;;;;;;6.45;3.33;;;20.40;92.50;;;;;;10435836;28;20255;-75
2022/09/11 09:26:57;;;;;;;8.52;3.53;;;20.30;91.80;;;;;;10368329;28;20595;-75
2022/09/11 09:32:26;;;;;;;5.00;2.63;;;20.50;85.70;;;;;;10353776;28;20204;-76
2022/09/11 09:37:48;;;;;;;6.72;3.33;;;22.40;63.60;;;;;;10368633;28;20201;-75
2022/09/11 09:43:33;;;;;;;6.50;2.95;;;23.10;51.20;;;;;;10376539;28;20465;-76
2022/09/11 09:48:54;;;;;;;11.35;3.45;;;23.60;51.40;;;;;;10394202;28;20584;-75
2022/09/11 09:54:21;;;;;;;3.63;2.78;;;24.00;45.50;;;;;;10367369;28;20265;-76
2022/09/11 09:59:51;;;;;;;5.90;2.95;;;22.90;43.30;;;;;;10353480;28;20217;-75
2022/09/11 10:05:25;;;;;;;7.10;2.88;;;22.80;43.50;;;;;;10353305;28;20217;-75
2022/09/11 10:10:57;;;;;;;4.95;2.40;;;23.40;40.60;;;;;;10359370;28;20280;-74
2022/09/11 10:16:24;;;;;;;5.57;2.70;;;24.20;38.60;;;;;;10396333;28;20247;-75
2022/09/11 10:21:46;;;;;;;4.40;2.00;;;24.30;37.70;;;;;;10434629;28;20231;-75
2022/09/11 10:27:11;;;;;;;3.60;2.28;;;24.60;34.00;;;;;;10378562;28;20304;-75
2022/09/11 10:32:36;;;;;;;6.65;2.40;;;24.60;33.10;;;;;;10353825;28;20229;-75
2022/09/11 10:38:03;;;;;;;6.32;2.15;;;23.60;30.10;;;;;;10369110;28;20220;-77
2022/09/11 10:43:33;;;;;;;4.72;2.00;;;22.70;34.10;;;;;;10378698;28;20217;-75
2022/09/11 10:49:04;;;;;;;3.40;2.30;;;22.60;34.30;;;;;;10353693;28;20217;-75
2022/09/11 10:54:43;;;;;;;5.85;2.17;;;23.50;32.40;;;;;;10357457;28;20261;-75
2022/09/11 11:00:37;;;;;;;3.13;2.13;;;24.50;30.00;;;;;;10375481;28;20292;-74
2022/09/11 11:06:05;;;;;;;6.05;1.98;;;25.30;29.10;;;;;;10359391;28;20217;-75
2022/09/11 11:11:46;;;;;;;3.30;1.90;;;25.30;27.60;;;;;;10389902;28;20189;-75
2022/09/11 11:17:50;;;;;;;6.35;1.98;;;24.80;26.70;;;;;;10377134;28;20275;-75
2022/09/11 11:23:17;;;;;;;6.07;1.95;;;23.80;28.30;;;;;;10441271;28;20220;-75
2022/09/11 11:29:06;;;;;;;4.03;2.00;;;23.80;28.30;;;;;;10358308;28;20429;-75
2022/09/11 11:35:03;;;;;;;2.83;1.63;;;24.00;27.70;;;;;;10359342;28;20197;-75
2022/09/11 11:40:46;;;;;;;3.50;1.83;;;23.80;28.70;;;;;;10379739;28;20185;-75
2022/09/11 11:46:18;;;;;;;4.03;2.05;;;24.30;28.50;;;;;;10398606;28;20250;-75
2022/09/11 11:52:16;;;;;;;3.05;1.98;;;24.30;25.80;;;;;;10419801;28;20491;-75
2022/09/11 11:57:43;;;;;;;4.45;2.25;;;24.70;25.70;;;;;;10439941;28;20199;-76
2022/09/11 12:03:11;;;;;;;4.25;1.85;;;24.10;25.40;;;;;;10438334;28;20213;-75
2022/09/11 12:08:43;;;;;;;3.17;1.52;;;23.50;27.30;;;;;;10398682;28;20199;-76
2022/09/11 12:14:06;;;;;;;2.92;1.95;;;23.70;25.50;;;;;;10397174;28;20209;-76
2022/09/11 12:19:27;;;;;;;2.90;1.60;;;23.20;26.70;;;;;;10425805;28;20203;-75
2022/09/11 12:24:51;;;;;;;2.95;1.60;;;23.40;26.20;;;;;;10420255;28;20213;-77
2022/09/11 12:30:15;;;;;;;3.45;1.52;;;23.50;26.20;;;;;;10357156;28;20194;-75
2022/09/11 12:35:48;;;;;;;2.95;1.65;;;24.20;24.70;;;;;;10356878;28;20190;-75
2022/09/11 12:41:16;;;;;;;3.78;1.88;;;24.30;25.30;;;;;;10384919;28;20217;-75
2022/09/11 12:46:43;;;;;;;4.13;2.13;;;24.80;24.60;;;;;;10396704;28;20228;-75
2022/09/11 12:52:06;;;;;;;3.05;1.70;;;24.10;24.50;;;;;;10420232;28;20267;-76
2022/09/11 12:57:34;;;;;;;3.70;1.80;;;22.90;25.60;;;;;;10396050;28;20193;-75
2022/09/11 13:02:57;;;;;;;5.00;1.77;;;22.20;28.00;;;;;;10396096;28;20277;-75
2022/09/11 13:08:21;;;;;;;2.72;1.63;;;;;;;;;;10395718;28;20268;-75
2022/09/11 13:13:43;;;;;;;6.15;1.83;;;21.00;28.60;;;;;;10396216;28;20221;-74
2022/09/11 13:19:16;;;;;;;6.93;2.10;;;20.90;29.60;;;;;;10419102;28;20234;-74
2022/09/11 13:24:38;;;;;;;5.90;1.98;;;21.80;29.20;;;;;;10405167;28;20452;-75
2022/09/11 13:30:00;;;;;;;6.82;2.35;;;21.60;27.70;;;;;;10355397;28;20193;-75
2022/09/11 13:35:26;;;;;;;5.93;1.70;;;21.70;29.10;;;;;;10354994;28;20278;-76
2022/09/11 13:40:56;;;;;;;2.58;1.95;;;22.10;27.50;;;;;;10377685;28;20247;-75
2022/09/11 13:46:22;;;;;;;6.32;2.05;;;21.90;27.40;;;;;;10394136;28;20240;-75
2022/09/11 13:51:46;;;;;;;2.50;1.90;;;21.60;28.60;;;;;;10411609;28;20205;-75
2022/09/11 13:57:22;;;;;;;2.47;1.70;;;21.50;28.50;;;;;;10395297;28;20197;-75
2022/09/11 14:02:49;;;;;;;4.75;1.85;;;21.20;29.10;;;;;;10395063;28;20197;-75
2022/09/11 14:08:27;;;;;;;3.90;1.70;;;20.30;29.20;;;;;;10394836;28;20248;-75
2022/09/11 14:14:10;;;;;;;4.10;2.22;;;19.80;31.10;;;;;;10407691;28;20225;-75
2022/09/11 14:19:34;;;;;;;2.53;1.50;;;19.60;31.90;;;;;;10414894;28;20192;-76
2022/09/11 14:25:17;;;;;;;4.65;1.80;;;19.50;32.60;;;;;;10387328;28;20248;-79
2022/09/11 14:30:39;;;;;;;2.22;1.83;;;19.50;34.00;;;;;;10361651;28;20190;-75
2022/09/11 14:36:04;;;;;;;6.43;2.88;;;19.50;33.60;;;;;;10361298;28;20492;-76
2022/09/11 14:41:27;;;;;;;2.78;1.48;;;19.50;34.20;;;;;;10379612;28;20424;-75
2022/09/11 14:46:49;;;;;;;3.40;1.70;;;19.30;34.70;;;;;;10401646;28;20291;-76
2022/09/11 14:52:13;;;;;;;4.13;1.65;;;19.20;35.20;;;;;;10426181;28;20276;-74
2022/09/11 14:57:34;;;;;;;3.55;1.90;;;19.20;35.50;;;;;;10455675;28;20188;-74
2022/09/11 15:02:56;;;;;;;2.30;1.50;;;19.10;35.60;;;;;;10441183;28;20192;-75
2022/09/11 15:08:32;;;;;;;6.18;2.20;;;18.90;35.60;;;;;;10441130;28;20192;-74
2022/09/11 15:13:55;;;;;;;4.63;1.75;;;18.70;35.30;;;;;;10440689;28;20197;-76
2022/09/11 15:19:36;;;;;;;3.35;1.20;;;18.50;36.30;;;;;;10415939;28;20200;-75
2022/09/11 15:24:59;;;;;;;3.35;1.48;;;18.50;36.70;;;;;;10363643;28;20229;-75
2022/09/11 15:30:21;;;;;;;2.85;1.90;;;18.40;36.30;;;;;;10359343;28;20376;-75
2022/09/11 15:35:42;;;;;;;3.10;2.20;;;18.20;37.30;;;;;;10359144;28;20245;-76
2022/09/11 15:41:05;;;;;;;2.75;1.60;;;18.00;38.00;;;;;;10358305;28;20217;-75
2022/09/11 15:46:26;;;;;;;3.38;1.80;;;17.80;38.90;;;;;;10398159;28;20227;-74
2022/09/11 15:51:49;;;;;;;2.33;1.80;;;17.70;40.00;;;;;;10434028;28;20238;-74
2022/09/11 15:57:11;;;;;;;2.90;2.00;;;17.50;40.60;;;;;;10438914;28;20207;-73
2022/09/11 16:02:32;;;;;;;5.55;1.92;;;17.30;42.20;;;;;;10439852;28;20192;-74
2022/09/11 16:07:53;;;;;;;4.80;2.17;;;17.00;44.40;;;;;;10439483;28;20268;-76
2022/09/11 16:13:16;;;;;;;2.95;2.20;;;16.90;46.50;;;;;;10438188;28;20205;-75
2022/09/11 16:18:37;;;;;;;5.90;2.30;;;16.80;48.60;;;;;;10423573;28;20310;-82
2022/09/11 16:23:59;;;;;;;4.47;2.35;;;16.70;51.00;;;;;;10433931;28;20234;-80
2022/09/11 16:29:23;;;;;;;6.18;2.70;;;16.60;53.40;;;;;;10398151;28;20192;-78
2022/09/11 16:34:45;;;;;;;7.43;3.17;;;16.50;47.30;;;;;;10398054;28;20195;-74
2022/09/11 16:40:08;;;;;;;5.78;2.95;;;16.40;48.00;;;;;;10397644;28;20372;-77
2022/09/11 16:45:33;;;;;;;6.63;4.45;;;16.20;1.00;;;;;;10397056;28;20230;-78
2022/09/11 16:50:56;;;;;;;6.65;3.42;;;16.00;1.00;;;;;;10396467;28;20198;-82
2022/09/11 16:56:20;;;;;;;6.35;3.42;;;15.90;1.00;;;;;;10410414;28;20200;-82
2022/09/11 17:01:41;;;;;;;15.98;6.85;;;15.80;1.00;;;;;;10382088;28;20357;-79
2022/09/11 17:07:03;;;;;;;16.77;7.85;;;15.70;1.00;;;;;;10396100;28;20214;-76
2022/09/11 17:12:24;;;;;;;13.23;6.60;;;15.60;68.60;;;;;;10398940;28;20198;-76
2022/09/11 17:17:46;;;;;;;12.65;5.72;;;15.50;99.90;;;;;;10424241;28;20233;-76
2022/09/11 17:23:10;;;;;;;8.48;5.57;;;15.50;99.90;;;;;;10435922;28;20230;-74
2022/09/11 17:28:31;;;;;;;9.02;4.75;;;15.40;99.90;;;;;;10354791;28;20208;-75
2022/09/11 17:33:52;;;;;;;8.23;4.28;;;15.30;99.90;;;;;;10355017;28;20205;-75
2022/09/11 17:39:13;;;;;;;5.55;3.45;;;15.20;99.90;;;;;;10355062;28;20191;-75
2022/09/11 17:44:34;;;;;;;7.55;4.60;;;15.10;99.90;;;;;;10385204;28;20284;-74
2022/09/11 17:49:56;;;;;;;6.03;4.10;;;15.00;99.90;;;;;;10401001;28;20200;-75
2022/09/11 17:55:17;;;;;;;6.95;4.20;;;14.90;99.90;;;;;;10436275;28;20223;-74
2022/09/11 18:00:39;;;;;;;6.47;4.28;;;14.80;99.90;;;;;;10435987;28;20496;-75
2022/09/11 18:06:02;;;;;;;7.45;4.35;;;14.70;1.00;;;;;;10444338;28;20229;-75
2022/09/11 18:11:23;;;;;;;6.57;4.35;;;14.70;87.20;;;;;;10443903;28;20288;-75
2022/09/11 18:16:46;;;;;;;8.05;4.90;;;14.60;88.30;;;;;;10439590;28;20415;-74
2022/09/11 18:22:07;;;;;;;9.52;4.03;;;14.50;89.00;;;;;;10402332;28;20271;-75
2022/09/11 18:27:29;;;;;;;7.73;3.87;;;14.40;82.70;;;;;;10373835;28;20534;-76
2022/09/11 18:32:50;;;;;;;8.48;4.85;;;14.30;79.30;;;;;;10361739;28;20189;-75
2022/09/11 18:38:11;;;;;;;6.57;4.20;;;14.30;81.10;;;;;;10361418;28;20543;-76
2022/09/11 18:43:32;;;;;;;6.70;3.72;;;14.20;80.60;;;;;;10360895;28;20217;-74
2022/09/11 18:48:54;;;;;;;6.85;2.97;;;14.20;80.60;;;;;;10399351;28;20442;-75
2022/09/11 18:54:19;;;;;;;5.13;3.03;;;14.10;88.50;;;;;;10360888;28;20200;-76
2022/09/11 18:59:42;;;;;;;3.88;2.72;;;14.10;76.50;;;;;;10359875;28;20197;-74
2022/09/11 19:05:03;;;;;;;9.73;3.10;;;14.00;75.20;;;;;;10360428;28;20316;-75
2022/09/11 19:10:24;;;;;;;4.27;2.77;;;14.00;75.90;;;;;;10360144;28;20224;-77
2022/09/11 19:15:56;;;;;;;5.32;2.85;;;13.90;62.90;;;;;;10375619;28;20542;-76
2022/09/11 19:21:21;;;;;;;4.83;3.30;;;13.90;62.30;;;;;;10364761;28;20198;-74
2022/09/11 19:26:43;;;;;;;5.35;4.53;;;13.80;67.80;;;;;;10358909;28;20233;-75
2022/09/11 19:32:05;;;;;;;6.60;3.95;;;13.70;44.20;;;;;;10359564;28;20379;-75
2022/09/11 19:37:27;;;;;;;4.07;3.22;;;13.70;46.30;;;;;;10359237;28;20201;-75
2022/09/11 19:42:48;;;;;;;5.80;3.50;;;13.70;50.10;;;;;;10358163;28;20450;-75
2022/09/11 19:48:09;;;;;;;6.17;3.17;;;13.60;54.10;;;;;;10412895;28;20230;-76
2022/09/11 19:53:31;;;;;;;4.43;3.40;;;13.60;53.90;;;;;;10429704;28;20583;-76
2022/09/11 19:58:53;;;;;;;5.30;3.10;;;13.60;55.90;;;;;;10439391;28;20189;-76
2022/09/11 20:04:16;;;;;;;9.37;3.77;;;13.50;58.00;;;;;;10439924;28;20465;-76
2022/09/11 20:09:37;;;;;;;4.90;3.20;;;13.40;45.50;;;;;;10439392;28;20221;-76
2022/09/11 20:14:59;;;;;;;6.03;3.50;;;13.40;53.30;;;;;;10425398;28;20231;-78
2022/09/11 20:20:20;;;;;;;7.57;3.00;;;13.40;49.80;;;;;;10418525;28;20204;-76
2022/09/11 20:25:41;;;;;;;5.73;3.43;;;13.40;15.70;;;;;;10348396;28;20232;-76
2022/09/11 20:31:11;;;;;;;5.77;3.13;;;13.30;42.80;;;;;;10375925;28;20271;-76
2022/09/11 20:36:32;;;;;;;5.33;3.10;;;13.30;1.00;;;;;;10397558;28;20193;-75
2022/09/11 20:41:53;;;;;;;6.23;3.07;;;13.30;22.00;;;;;;10397407;28;20188;-75
2022/09/11 20:47:15;;;;;;;8.43;4.40;;;13.30;23.50;;;;;;10397221;28;20224;-76
2022/09/11 20:52:36;;;;;;;4.93;2.70;;;13.20;1.00;;;;;;10423729;28;20820;-78
2022/09/11 20:57:59;;;;;;;9.30;3.17;;;13.10;1.00;;;;;;10436960;28;20246;-76
2022/09/11 21:03:20;;;;;;;4.97;2.90;;;13.10;1.00;;;;;;10450633;28;20190;-76
2022/09/11 21:08:43;;;;;;;5.10;2.90;;;13.10;52.20;;;;;;10423617;28;20219;-76
2022/09/11 21:14:05;;;;;;;6.27;3.13;;;13.10;1.00;;;;;;10396183;28;20198;-79
2022/09/11 21:19:26;;;;;;;4.10;2.50;;;13.10;1.00;;;;;;10407078;28;20195;-77
2022/09/11 21:24:48;;;;;;;4.70;3.13;;;13.10;1.00;;;;;;10389421;28;20235;-77
2022/09/11 21:30:10;;;;;;;6.80;3.07;;;13.10;1.00;;;;;;10370579;28;20208;-76
2022/09/11 21:35:31;;;;;;;6.70;3.03;;;13.00;1.00;;;;;;10354515;28;20247;-77
2022/09/11 21:40:52;;;;;;;3.17;2.50;;;13.00;1.00;;;;;;10384129;28;20211;-77
2022/09/11 21:46:14;;;;;;;6.40;2.33;;;13.00;1.00;;;;;;10395523;28;20227;-79
2022/09/11 21:51:35;;;;;;;4.17;2.60;;;12.90;1.00;;;;;;10415037;28;20199;-77
2022/09/11 21:56:56;;;;;;;3.33;2.87;;;12.80;1.00;;;;;;10436320;28;20194;-78
2022/09/11 22:02:18;;;;;;;4.47;2.93;;;12.80;1.00;;;;;;10436042;28;20190;-76
2022/09/11 22:07:40;;;;;;;5.03;2.80;;;12.80;1.00;;;;;;10429865;28;20216;-75
2022/09/11 22:13:01;;;;;;;4.03;2.90;;;12.80;1.00;;;;;;10395614;28;20367;-76
2022/09/11 22:18:22;;;;;;;9.20;2.70;;;12.80;1.00;;;;;;10403352;28;20233;-76
2022/09/11 22:23:43;;;;;;;5.67;3.00;;;12.80;1.00;;;;;;10393811;28;20196;-76
2022/09/11 22:29:05;;;;;;;6.00;2.77;;;12.70;1.00;;;;;;10394158;28;20199;-77
2022/09/11 22:34:26;;;;;;;5.23;2.67;;;12.70;1.00;;;;;;10394443;28;20196;-76
2022/09/11 22:39:48;;;;;;;3.10;2.40;;;12.60;1.00;;;;;;10407281;28;20190;-76
2022/09/11 22:45:10;;;;;;;4.43;2.83;;;12.60;1.00;;;;;;10407249;28;20244;-76
2022/09/11 22:50:32;;;;;;;10.20;2.80;;;12.50;1.00;;;;;;10410829;28;20199;-77
2022/09/11 22:55:53;;;;;;;3.27;2.13;;;12.50;1.00;;;;;;10442659;28;20199;-76
2022/09/11 23:01:17;;;;;;;3.80;2.73;;;12.40;1.00;;;;;;10440831;28;20198;-76
2022/09/11 23:12:21;;;;;;;5.03;2.63;;;12.30;1.00;;;;;;10398551;28;20477;-76
2022/09/11 23:17:43;;;;;;;3.43;2.50;;;12.40;1.00;;;;;;10413601;28;20570;-77
2022/09/11 23:23:04;;;;;;;5.80;2.83;;;12.30;1.00;;;;;;10401896;28;20199;-77
2022/09/11 23:28:25;;;;;;;3.70;2.37;;;12.30;1.00;;;;;;10359740;28;20227;-81
2022/09/11 23:33:47;;;;;;;3.60;2.07;;;12.30;1.00;;;;;;10359187;28;20191;-82
2022/09/11 23:39:08;;;;;;;2.70;2.10;;;12.20;11.10;;;;;;10375310;28;20191;-83
2022/09/11 23:44:29;;;;;;;2.37;1.90;;;12.20;8.60;;;;;;10358717;28;20203;-81
2022/09/11 23:49:51;;;;;;;4.00;2.50;;;12.20;4.60;;;;;;10407426;28;20206;-82
2022/09/11 23:55:13;;;;;;;3.47;2.47;;;12.20;4.30;;;;;;10440805;28;20197;-83
